Time;durP1;ratioP1;P1;durP2;ratioP2;P2;SDS_P1;SDS_P2;PMS_P1;PMS_P2;Temp;Humidity;BMP_temperature;BMP_pressure;BME280_temperature;BME280_humidity;BME280_pressure;Samples;Min_cycle;Max_cycle;Signal;HPM_P1;HPM_P2
2022/07/03 00:00:27;;;;;;;;;0.25;0.25;;;;;22.24;53.11;101612.06;5082911;27;45239;-85
2022/07/03 00:02:53;;;;;;;;;1.75;0.00;;;;;22.19;52.91;101605.84;5082515;27;46394;-85
2022/07/03 00:05:19;;;;;;;;;2.50;0.25;;;;;22.14;53.27;101597.03;5057697;28;45358;-83
2022/07/03 00:07:45;;;;;;;;;0.75;0.75;;;;;22.09;53.14;101590.81;5077703;28;45841;-86
2022/07/03 00:10:10;;;;;;;;;1.25;1.25;;;;;22.09;53.46;101604.00;5077449;27;45520;-86
2022/07/03 00:12:37;;;;;;;;;0.00;0.00;;;;;22.07;53.52;101601.34;5076598;28;45590;-87
2022/07/03 00:15:04;;;;;;;;;2.50;1.25;;;;;22.02;53.93;101599.53;5076717;28;45374;-83
2022/07/03 00:17:30;;;;;;;;;2.00;2.00;;;;;22.00;53.85;101596.91;5081320;28;45417;-84
2022/07/03 00:19:56;;;;;;;;;0.00;0.00;;;;;21.93;53.89;101592.41;5066449;28;45366;-84
2022/07/03 00:22:25;;;;;;;;;1.25;1.25;;;;;21.97;53.23;101596.00;5085223;27;45343;-84
2022/07/03 00:25:00;;;;;;;;;1.00;1.00;;;;;21.97;53.99;101593.34;5083840;28;45364;-85
2022/07/03 00:27:28;;;;;;;;;2.00;1.00;;;;;21.93;54.42;101597.69;5066188;28;45452;-85
2022/07/03 00:29:58;;;;;;;;;2.00;1.00;;;;;21.89;55.59;101599.41;5084743;28;45444;-85
2022/07/03 00:32:25;;;;;;;;;0.00;0.00;;;;;21.82;55.11;101594.03;5080685;28;46224;-84
2022/07/03 00:34:53;;;;;;;;;1.00;1.00;;;;;21.81;56.40;101603.72;5079665;28;45744;-84
2022/07/03 00:37:19;;;;;;;;;1.00;0.25;;;;;21.77;56.51;101597.53;5079570;27;45380;-84
2022/07/03 00:39:45;;;;;;;;;0.00;0.00;;;;;21.77;56.94;101596.63;5080137;28;45243;-84
2022/07/03 00:42:12;;;;;;;;;2.25;1.00;;;;;21.79;56.56;101597.53;5061059;28;47273;-85
2022/07/03 00:44:48;;;;;;;;;1.00;1.00;;;;;21.79;57.24;101601.09;5079971;28;45481;-84
2022/07/03 00:47:15;;;;;;;;;1.50;1.00;;;;;21.80;57.07;101601.94;5061124;28;45388;-84
2022/07/03 00:49:44;;;;;;;;;1.25;0.00;;;;;21.77;57.37;101597.53;5080031;28;45432;-85
2022/07/03 00:52:13;;;;;;;;;1.00;1.00;;;;;21.71;57.73;101608.00;5079055;28;47587;-85
2022/07/03 00:54:44;;;;;;;;;1.00;1.00;;;;;21.67;58.45;101615.84;5080085;28;45351;-84
2022/07/03 00:57:16;;;;;;;;;0.75;0.00;;;;;21.60;58.78;101602.63;5079632;27;45321;-84
2022/07/03 00:59:43;;;;;;;;;3.50;1.75;;;;;21.58;59.34;101596.41;5079284;28;45417;-83
2022/07/03 01:02:22;;;;;;;;;1.00;1.00;;;;;21.60;58.80;101602.63;5079124;28;46709;-83
2022/07/03 01:05:06;;;;;;;;;0.25;0.25;;;;;21.58;58.75;101603.44;5079115;28;45442;-84
2022/07/03 01:07:56;;;;;;;;;1.25;1.25;;;;;21.52;59.49;101592.81;5079028;28;45240;-83
2022/07/03 01:10:37;;;;;;;;;3.00;1.00;;;;;21.51;59.79;101607.75;5077536;28;45546;-83
2022/07/03 01:13:39;;;;;;;;;2.25;1.00;;;;;21.48;58.90;101598.06;5077237;28;47152;-84
2022/07/03 01:16:16;;;;;;;;;1.00;1.00;;;;;21.43;59.72;101605.00;5076994;28;45646;-83
2022/07/03 01:18:45;;;;;;;;;0.00;0.00;;;;;21.39;60.40;101607.59;5079226;28;45435;-82
2022/07/03 01:21:34;;;;;;;;;1.25;1.25;;;;;21.31;60.74;101605.75;5077575;28;45593;-82
2022/07/03 01:24:09;;;;;;;;;1.00;1.00;;;;;21.27;61.52;101613.59;5078822;28;45343;-82
2022/07/03 01:26:39;;;;;;;;;1.00;1.00;;;;;21.21;61.20;101610.84;5078616;27;45239;-83
2022/07/03 01:29:11;;;;;;;;;0.75;0.75;;;;;21.15;61.64;101615.19;5078545;28;45714;-83
2022/07/03 01:31:39;;;;;;;;;0.75;0.75;;;;;21.18;60.97;101615.22;5078900;28;45368;-82
2022/07/03 01:34:13;;;;;;;;;2.50;1.50;;;;;21.21;61.72;101613.50;5076834;27;47516;-82
2022/07/03 01:36:41;;;;;;;;;0.25;0.25;;;;;21.15;62.19;101611.66;5077002;28;45367;-83
2022/07/03 01:39:10;;;;;;;;;2.00;2.00;;;;;21.09;62.16;101604.56;5078102;27;45382;-82
2022/07/03 01:41:36;;;;;;;;;2.75;1.25;;;;;21.08;63.02;101610.69;5078742;28;45612;-82
2022/07/03 01:44:04;;;;;;;;;1.25;1.25;;;;;21.00;62.73;101610.56;5076576;28;45547;-83
2022/07/03 01:46:32;;;;;;;;;1.00;1.00;;;;;20.94;62.93;101613.13;5078870;28;45756;-82
2022/07/03 01:48:59;;;;;;;;;2.00;2.00;;;;;20.90;63.39;101613.94;5086112;27;45486;-82
2022/07/03 01:51:26;;;;;;;;;2.50;2.00;;;;;20.87;64.01;101612.16;5096537;27;45370;-82
2022/07/03 01:53:52;;;;;;;;;4.00;3.00;;;;;20.86;63.33;101612.13;5085343;27;45572;-82
2022/07/03 01:56:21;;;;;;;;;4.25;2.50;;;;;20.83;63.74;101617.34;5077928;28;45350;-82
2022/07/03 01:58:47;;;;;;;;;1.50;1.50;;;;;20.77;63.96;101612.00;5078061;28;45398;-84
2022/07/03 02:01:26;;;;;;;;;2.25;2.25;;;;;20.74;63.70;101607.53;5078242;27;45499;-82
2022/07/03 02:04:22;;;;;;;;;3.00;3.00;;;;;20.71;64.24;101602.22;5077951;28;45515;-82
2022/07/03 02:07:20;;;;;;;;;2.50;2.50;;;;;20.68;64.49;101607.44;5077997;28;45242;-82
2022/07/03 02:09:58;;;;;;;;;3.25;2.50;;;;;20.61;64.95;101613.47;5077822;28;45523;-82
2022/07/03 02:12:30;;;;;;;;;2.00;2.00;;;;;20.56;65.97;101613.41;5077999;28;45304;-83
2022/07/03 02:15:04;;;;;;;;;1.00;1.00;;;;;20.54;65.63;101615.97;5085805;27;45540;-82
2022/07/03 02:17:36;;;;;;;;;1.00;1.00;;;;;20.51;66.24;101609.78;5098333;27;45683;-82
2022/07/03 02:20:06;;;;;;;;;1.75;1.00;;;;;20.50;66.52;101603.66;5097751;27;45224;-82
2022/07/03 02:22:35;;;;;;;;;3.00;3.00;;;;;20.47;66.20;101608.84;5098031;27;45410;-83
2022/07/03 02:25:07;;;;;;;;;7.00;2.50;;;;;20.45;66.28;101605.31;5096836;27;46190;-82
2022/07/03 02:27:43;;;;;;;;;2.00;2.00;;;;;20.42;66.53;101600.91;5077743;27;45363;-83
2022/07/03 02:30:10;;;;;;;;;4.00;2.50;;;;;20.36;66.55;101599.91;5091549;27;45326;-83
2022/07/03 02:32:40;;;;;;;;;2.00;2.00;;;;;20.34;67.11;101615.66;5099829;27;45569;-83
2022/07/03 02:35:10;;;;;;;;;3.75;3.00;;;;;20.34;66.97;101613.03;5101390;27;45474;-82
2022/07/03 02:37:44;;;;;;;;;4.00;3.00;;;;;20.29;67.48;101614.69;5097738;27;45791;-82
2022/07/03 02:40:21;;;;;;;;;2.25;2.00;;;;;20.25;68.01;101623.38;5097225;27;45177;-83
2022/07/03 02:43:16;;;;;;;;;2.00;2.00;;;;;20.20;68.07;101628.53;5082556;27;45166;-83
2022/07/03 02:46:48;;;;;;;;;2.00;2.00;;;;;20.18;68.70;101630.28;5081986;27;45675;-83
2022/07/03 02:48:56;;;;;;;;;2.00;2.00;;;;;20.15;68.62;101630.22;5077703;27;45464;-83
2022/07/03 02:51:26;;;;;;;;;2.00;2.00;;;;;20.14;69.07;101633.72;5091664;27;45298;-82
2022/07/03 02:54:01;;;;;;;;;2.25;2.00;;;;;20.13;69.30;101629.31;5078709;27;45318;-82
2022/07/03 02:56:51;;;;;;;;;3.00;3.00;;;;;20.14;68.68;101636.34;5091347;27;45640;-82
2022/07/03 02:59:35;;;;;;;;;4.50;2.25;;;;;20.13;68.69;101634.56;5059672;28;45457;-81
2022/07/03 03:02:13;;;;;;;;;2.00;2.00;;;;;20.12;69.28;101629.28;5087700;27;45318;-82
2022/07/03 03:04:43;;;;;;;;;4.00;2.00;;;;;20.09;68.90;101632.72;5097741;27;45272;-82
2022/07/03 03:07:23;;;;;;;;;1.75;1.00;;;;;20.05;69.13;101636.16;5081232;27;45435;-82
2022/07/03 03:09:48;;;;;;;;;2.50;2.50;;;;;19.99;69.34;101639.56;5083517;27;45308;-82
2022/07/03 03:12:24;;;;;;;;;1.75;1.75;;;;;19.95;68.85;101636.00;5096998;27;45843;-82
2022/07/03 03:15:00;;;;;;;;;2.00;2.00;;;;;19.91;68.50;101638.53;5097219;27;45714;-82
2022/07/03 03:17:35;;;;;;;;;4.00;3.00;;;;;19.90;69.41;101640.25;5088608;27;45578;-82
2022/07/03 03:20:02;;;;;;;;;5.50;4.00;;;;;19.89;69.73;101630.59;5076708;27;45280;-82
2022/07/03 03:22:37;;;;;;;;;2.00;1.75;;;;;19.84;69.77;101629.63;5089181;27;45414;-81
2022/07/03 03:25:04;;;;;;;;;2.00;2.00;;;;;19.81;69.56;101629.53;5075358;28;45323;-81
2022/07/03 03:27:30;;;;;;;;;2.25;1.00;;;;;19.82;69.52;101627.78;5063339;28;45435;-82
2022/07/03 03:29:56;;;;;;;;;1.75;1.75;;;;;19.81;69.88;101626.91;5077124;28;45257;-81
2022/07/03 03:32:24;;;;;;;;;1.50;1.50;;;;;19.78;69.87;101622.50;5076570;28;45187;-81
2022/07/03 03:34:50;;;;;;;;;3.00;3.00;;;;;19.77;70.40;101625.97;5075565;28;45458;-81
2022/07/03 03:37:16;;;;;;;;;2.25;1.25;;;;;19.73;69.77;101607.50;5076151;28;45476;-82
2022/07/03 03:39:43;;;;;;;;;2.75;2.00;;;;;19.75;69.44;101626.81;5069147;28;45400;-82
2022/07/03 03:42:09;;;;;;;;;1.00;1.00;;;;;19.75;69.29;101627.69;5076042;28;45316;-81
2022/07/03 03:44:35;;;;;;;;;1.25;1.25;;;;;19.73;69.64;101633.78;5076912;28;45616;-82
2022/07/03 03:47:01;;;;;;;;;2.25;1.00;;;;;19.70;69.20;101629.34;5076025;28;46376;-82
2022/07/03 03:49:28;;;;;;;;;1.50;1.50;;;;;19.65;69.68;101630.97;5076012;28;45185;-81
2022/07/03 03:51:54;;;;;;;;;1.25;0.75;;;;;19.62;69.26;101636.16;5076045;27;45433;-81
2022/07/03 03:54:20;;;;;;;;;4.50;3.00;;;;;19.60;69.51;101632.59;5076244;28;45619;-82
2022/07/03 03:56:46;;;;;;;;;2.00;2.00;;;;;19.59;70.29;101639.63;5076162;28;45689;-81
2022/07/03 03:59:12;;;;;;;;;2.50;2.00;;;;;19.59;69.58;101636.13;5074743;27;45454;-81
2022/07/03 04:01:38;;;;;;;;;2.00;1.00;;;;;19.56;69.04;101639.53;5076249;28;45453;-82
2022/07/03 04:04:03;;;;;;;;;1.25;1.25;;;;;19.53;69.50;101641.22;5076096;28;45333;-82
2022/07/03 04:06:29;;;;;;;;;2.00;2.00;;;;;19.48;70.37;101644.66;5076248;28;45311;-82
2022/07/03 04:08:55;;;;;;;;;1.00;1.00;;;;;19.40;70.39;101640.09;5076197;28;45320;-82
2022/07/03 04:11:21;;;;;;;;;1.25;1.25;;;;;19.37;70.71;101640.00;5075759;28;45218;-82
2022/07/03 04:13:46;;;;;;;;;2.00;1.00;;;;;19.34;70.81;101646.09;5076200;28;45618;-82
2022/07/03 04:16:12;;;;;;;;;1.00;1.00;;;;;19.34;71.17;101640.84;5075201;28;45361;-82
2022/07/03 04:18:38;;;;;;;;;3.25;2.00;;;;;19.34;70.91;101644.34;5075838;28;45394;-82
2022/07/03 04:21:05;;;;;;;;;3.00;2.00;;;;;19.34;71.16;101646.97;5076102;28;45389;-82
2022/07/03 04:23:31;;;;;;;;;2.00;1.00;;;;;19.32;71.49;101653.03;5076156;28;45542;-82
2022/07/03 04:26:06;;;;;;;;;1.25;1.25;;;;;19.34;72.00;101646.09;5075951;28;46131;-82
2022/07/03 04:28:33;;;;;;;;;2.75;1.50;;;;;19.40;71.75;101648.84;5076036;28;45407;-82
2022/07/03 04:30:59;;;;;;;;;1.00;1.00;;;;;19.43;71.31;101646.28;5076618;28;45352;-82
2022/07/03 04:33:25;;;;;;;;;1.50;1.50;;;;;19.44;71.11;101658.56;5078677;28;45382;-82
2022/07/03 04:35:50;;;;;;;;;1.25;0.50;;;;;19.44;71.15;101661.19;5076387;28;45904;-82
2022/07/03 04:38:16;;;;;;;;;2.00;2.00;;;;;19.44;71.61;101660.28;5076832;28;45266;-82
2022/07/03 04:40:42;;;;;;;;;1.00;1.00;;;;;19.41;71.33;101655.88;5078922;28;45298;-82
2022/07/03 04:43:08;;;;;;;;;2.00;1.00;;;;;19.43;71.25;101654.16;5077717;28;45292;-82
2022/07/03 04:45:34;;;;;;;;;2.00;2.00;;;;;19.48;71.27;101662.13;5076775;28;45511;-83
2022/07/03 04:47:59;;;;;;;;;3.50;3.50;;;;;19.48;71.65;101670.94;5076360;28;45449;-83
2022/07/03 04:50:25;;;;;;;;;2.00;1.75;;;;;19.49;71.06;101664.78;5076341;27;45380;-81
2022/07/03 04:52:51;;;;;;;;;1.75;1.00;;;;;19.48;71.26;101660.41;5076333;28;45571;-82
2022/07/03 04:55:16;;;;;;;;;1.00;1.00;;;;;19.51;71.41;101663.94;5075261;27;45345;-82
2022/07/03 04:57:42;;;;;;;;;2.00;1.75;;;;;19.49;71.66;101666.53;5074219;28;45442;-82
2022/07/03 05:00:08;;;;;;;;;1.00;1.00;;;;;19.48;71.36;101659.50;5075263;28;45336;-82
2022/07/03 05:02:34;;;;;;;;;1.00;1.00;;;;;19.52;71.74;101663.09;5082037;27;45398;-82
2022/07/03 05:05:00;;;;;;;;;3.00;2.00;;;;;19.52;71.50;101660.47;5081275;28;45394;-82
2022/07/03 05:07:25;;;;;;;;;2.25;1.00;;;;;19.52;71.83;101656.13;5078935;27;45414;-82
2022/07/03 05:09:51;;;;;;;;;1.50;1.50;;;;;19.54;71.16;101670.16;5079014;27;45189;-82
2022/07/03 05:12:17;;;;;;;;;2.00;1.00;;;;;19.55;71.38;101671.91;5078965;27;45297;-81
2022/07/03 05:14:43;;;;;;;;;0.00;0.00;;;;;19.52;71.85;101669.25;5082173;27;45358;-81
2022/07/03 05:17:09;;;;;;;;;1.00;1.00;;;;;19.51;71.96;101674.44;5087289;28;45552;-81
2022/07/03 05:19:38;;;;;;;;;2.00;2.00;;;;;19.46;72.53;101669.09;5078945;28;45355;-82
2022/07/03 05:22:04;;;;;;;;;3.25;2.00;;;;;19.45;71.90;101672.56;5078423;28;45481;-82
2022/07/03 05:24:30;;;;;;;;;1.00;1.00;;;;;19.45;72.03;101659.44;5078577;27;46469;-81
2022/07/03 05:26:56;;;;;;;;;1.00;1.00;;;;;19.45;72.21;101667.31;5078934;28;45465;-82
2022/07/03 05:29:22;;;;;;;;;1.00;1.00;;;;;19.46;72.65;101666.47;5078292;28;45198;-81
2022/07/03 05:31:47;;;;;;;;;1.00;1.00;;;;;19.45;72.07;101670.84;5081486;27;45578;-83
2022/07/03 05:34:13;;;;;;;;;3.00;2.00;;;;;19.47;72.65;101669.16;5088958;27;45480;-82
2022/07/03 05:36:39;;;;;;;;;1.00;1.00;;;;;19.49;72.47;101672.66;5070218;27;45401;-83
2022/07/03 05:41:49;;;;;;;;;1.00;1.00;;;;;19.56;72.28;101667.56;5078789;28;46026;-85
2022/07/03 05:44:15;;;;;;;;;2.00;1.25;;;;;19.59;72.07;101676.41;5096944;27;46605;-81
2022/07/03 05:46:40;;;;;;;;;2.50;1.00;;;;;19.59;72.07;101671.13;5094842;27;45434;-82
2022/07/03 05:49:06;;;;;;;;;2.00;1.00;;;;;19.59;72.36;101673.78;5082294;27;45479;-83
2022/07/03 05:51:31;;;;;;;;;2.00;2.00;;;;;19.60;71.89;101678.16;5082707;27;45604;-82
2022/07/03 05:53:57;;;;;;;;;1.75;1.75;;;;;19.60;72.00;101678.16;5093664;27;45420;-81
2022/07/03 05:56:23;;;;;;;;;2.75;1.00;;;;;19.62;72.22;101681.72;5077486;27;45335;-81
2022/07/03 05:58:49;;;;;;;;;2.00;2.00;;;;;19.62;72.91;101676.47;5077795;28;45252;-81
2022/07/03 06:01:14;;;;;;;;;1.00;1.00;;;;;19.64;72.81;101680.03;5077802;28;45394;-81
2022/07/03 06:03:40;;;;;;;;;3.00;1.00;;;;;19.64;73.38;101680.03;5077290;28;45430;-82
2022/07/03 06:06:05;;;;;;;;;1.00;1.00;;;;;19.67;73.62;101680.91;5059424;27;45342;-81
2022/07/03 06:08:31;;;;;;;;;1.00;1.00;;;;;19.68;74.00;101683.59;5077769;28;45466;-81
2022/07/03 06:10:56;;;;;;;;;1.75;1.75;;;;;19.68;74.60;101686.22;5060283;28;45488;-82
2022/07/03 06:13:22;;;;;;;;;2.00;2.00;;;;;19.71;74.62;101685.38;5076067;28;46222;-82
2022/07/03 06:15:48;;;;;;;;;2.25;2.25;;;;;19.72;75.05;101684.53;5077634;28;45231;-82
2022/07/03 06:18:13;;;;;;;;;2.00;2.00;;;;;19.75;75.53;101690.75;5077789;28;45361;-81
2022/07/03 06:20:39;;;;;;;;;4.25;2.25;;;;;19.74;76.12;101681.09;5078088;28;45468;-82
2022/07/03 06:23:05;;;;;;;;;3.00;2.00;;;;;19.80;76.07;101677.69;5077233;28;46134;-82
2022/07/03 06:25:30;;;;;;;;;2.00;2.00;;;;;19.85;76.84;101683.94;5077610;27;45445;-83
2022/07/03 06:27:56;;;;;;;;;3.25;2.25;;;;;19.89;77.27;101691.06;5078519;27;45298;-84
2022/07/03 06:30:21;;;;;;;;;2.50;2.50;;;;;19.93;77.51;101695.53;5077863;27;45440;-84
2022/07/03 06:32:47;;;;;;;;;3.00;2.00;;;;;19.98;77.53;101690.38;5081523;28;46063;-84
2022/07/03 06:35:12;;;;;;;;;3.00;2.00;;;;;20.01;77.99;101682.53;5082612;28;45405;-83
2022/07/03 06:37:38;;;;;;;;;3.25;2.25;;;;;20.03;78.34;101687.81;5089150;28;45336;-84
2022/07/03 06:40:04;;;;;;;;;1.50;1.50;;;;;20.04;78.33;101682.59;5083928;27;45247;-84
2022/07/03 06:42:30;;;;;;;;;2.50;2.00;;;;;20.05;78.17;101687.00;5077562;28;46120;-84
2022/07/03 06:44:55;;;;;;;;;2.00;2.00;;;;;20.09;77.72;101691.47;5079783;28;45416;-83
2022/07/03 06:47:21;;;;;;;;;2.50;2.50;;;;;20.14;77.96;101693.31;5076781;28;45357;-83
2022/07/03 06:49:47;;;;;;;;;2.00;2.00;;;;;20.15;77.37;101688.06;5077352;28;45459;-84
2022/07/03 06:52:12;;;;;;;;;3.25;3.25;;;;;20.15;78.00;101695.94;5076923;28;45213;-83
2022/07/03 06:54:39;;;;;;;;;3.00;1.00;;;;;20.14;79.42;101690.69;5077108;28;45396;-82
2022/07/03 06:57:05;;;;;;;;;3.00;2.50;;;;;20.15;79.59;101695.94;5059325;28;45503;-81
2022/07/03 06:59:31;;;;;;;;;1.50;1.50;;;;;20.17;79.54;101695.97;5079627;27;45391;-78
2022/07/03 07:01:56;;;;;;;;;1.50;1.50;;;;;20.15;78.69;101701.22;5076546;28;45600;-79
2022/07/03 07:04:22;;;;;;;;;3.50;2.00;;;;;20.11;78.78;101707.25;5076590;28;45369;-77
2022/07/03 07:06:47;;;;;;;;;2.00;2.00;;;;;20.09;79.66;101709.88;5075667;27;45268;-81
2022/07/03 07:09:13;;;;;;;;;2.25;2.00;;;;;20.09;78.74;101706.34;5076032;28;45403;-81
2022/07/03 07:11:39;;;;;;;;;2.00;2.00;;;;;20.10;79.05;101709.00;5075446;28;46472;-82
2022/07/03 07:14:04;;;;;;;;;3.50;3.50;;;;;20.11;79.64;101709.88;5075872;28;45423;-81
2022/07/03 07:16:30;;;;;;;;;6.00;6.00;;;;;20.16;79.55;101708.25;5075939;28;45474;-80
2022/07/03 07:18:55;;;;;;;;;4.25;3.00;;;;;20.21;79.32;101713.59;5075850;28;45569;-82
2022/07/03 07:21:21;;;;;;;;;2.00;2.00;;;;;20.21;78.98;101708.34;5075164;28;45423;-82
2022/07/03 07:23:46;;;;;;;;;4.00;2.50;;;;;20.21;79.51;101718.84;5075242;28;45244;-80
2022/07/03 07:26:12;;;;;;;;;2.50;2.50;;;;;20.17;79.54;101722.25;5078228;27;45379;-82
2022/07/03 07:28:38;;;;;;;;;3.00;1.50;;;;;20.13;79.31;101715.19;5093164;27;45566;-81
2022/07/03 07:31:03;;;;;;;;;2.25;2.00;;;;;20.13;79.82;101718.69;5087989;27;45313;-80
2022/07/03 07:33:29;;;;;;;;;2.75;2.00;;;;;20.17;80.24;101724.88;5079298;27;45438;-81
2022/07/03 07:35:55;;;;;;;;;5.00;4.00;;;;;20.13;79.49;101718.69;5091499;27;45347;-82
2022/07/03 07:38:20;;;;;;;;;2.00;2.00;;;;;20.13;79.82;101729.22;5081761;27;45645;-81
2022/07/03 07:40:46;;;;;;;;;3.00;2.00;;;;;20.10;79.43;101724.78;5092265;27;45477;-85
2022/07/03 07:43:12;;;;;;;;;2.75;1.50;;;;;20.12;79.74;101727.44;5061453;28;45841;-83
2022/07/03 07:45:38;;;;;;;;;4.00;4.00;;;;;20.15;79.86;101724.88;5088456;27;45471;-84
2022/07/03 07:48:04;;;;;;;;;3.75;2.00;;;;;20.13;79.27;101716.06;5095300;27;45506;-81
2022/07/03 07:50:30;;;;;;;;;2.00;2.00;;;;;20.17;79.36;101725.78;5062163;27;45407;-80
2022/07/03 07:52:56;;;;;;;;;4.00;2.50;;;;;20.17;78.92;101717.00;5076659;27;45375;-79
2022/07/03 07:55:21;;;;;;;;;3.75;3.75;;;;;20.23;79.27;101715.38;5076275;27;45285;-79
2022/07/03 07:57:48;;;;;;;;;3.00;3.00;;;;;20.24;79.51;101721.56;5095985;27;45457;-81
2022/07/03 08:00:16;;;;;;;;;4.50;3.50;;;;;20.29;79.47;101719.88;5096700;27;45311;-82
2022/07/03 08:05:38;;;;;;;;;3.50;1.50;;;;;20.21;79.16;101717.09;5072299;27;45457;-80
2022/07/03 08:08:09;;;;;;;;;2.25;2.00;;;;;20.25;79.18;101723.28;5066558;27;45469;-81
2022/07/03 08:10:40;;;;;;;;;2.00;2.00;;;;;20.29;79.97;101722.50;5080902;27;45882;-80
2022/07/03 08:13:06;;;;;;;;;1.75;1.75;;;;;20.31;79.32;101722.53;5051445;28;45508;-79
2022/07/03 08:15:32;;;;;;;;;3.50;3.00;;;;;20.35;79.80;101720.00;5076248;27;45461;-79
2022/07/03 08:17:58;;;;;;;;;6.25;2.75;;;;;20.47;77.81;101721.06;5076320;27;45481;-78
2022/07/03 08:20:24;;;;;;;;;4.50;4.50;;;;;20.48;76.60;101725.47;5075792;28;46130;-83
2022/07/03 08:22:49;;;;;;;;;3.25;2.00;;;;;20.49;74.53;101717.63;5076183;27;45888;-84
2022/07/03 08:25:15;;;;;;;;;4.00;2.50;;;;;20.48;74.11;101709.69;5060245;28;45295;-83
2022/07/03 08:27:41;;;;;;;;;2.75;2.00;;;;;20.46;75.36;101719.31;5077237;27;45503;-84
2022/07/03 08:30:07;;;;;;;;;2.00;2.00;;;;;20.49;76.19;101727.25;5077215;28;45542;-84
2022/07/03 08:32:33;;;;;;;;;4.50;3.00;;;;;20.48;76.66;101709.69;5076461;28;45672;-84
2022/07/03 08:34:59;;;;;;;;;2.25;2.25;;;;;20.55;76.88;101720.34;5058042;28;45413;-86
2022/07/03 08:37:26;;;;;;;;;4.00;3.25;;;;;20.57;76.19;101721.28;5091858;27;45498;-85
2022/07/03 08:39:52;;;;;;;;;4.50;4.00;;;;;20.58;76.47;101711.63;5098989;27;46391;-83
2022/07/03 08:42:19;;;;;;;;;3.00;3.00;;;;;20.62;76.26;101716.09;5082740;27;45798;-82
2022/07/03 08:44:46;;;;;;;;;5.00;4.00;;;;;20.65;75.81;101718.78;5087450;27;45383;-86
2022/07/03 08:47:13;;;;;;;;;3.25;3.25;;;;;20.67;75.76;101717.09;5082893;27;45555;-85
2022/07/03 08:49:41;;;;;;;;;2.00;2.00;;;;;20.63;75.99;101712.63;5105270;27;46187;-84
2022/07/03 08:52:09;;;;;;;;;2.25;2.25;;;;;20.69;75.98;101706.56;5098602;27;45744;-83
2022/07/03 08:54:44;;;;;;;;;3.50;3.50;;;;;20.75;76.69;101705.81;5064755;27;45277;-78
2022/07/03 08:57:11;;;;;;;;;3.50;3.25;;;;;20.83;75.89;101713.00;5093854;27;45449;-90
2022/07/03 08:59:38;;;;;;;;;2.50;2.25;;;;;20.92;75.96;101720.13;5083809;28;45739;-78
2022/07/03 09:02:06;;;;;;;;;3.50;3.50;;;;;20.98;76.10;101712.38;5079664;27;45486;-85
2022/07/03 09:04:35;;;;;;;;;3.75;2.00;;;;;21.14;75.81;101712.59;5083322;27;45416;-82
2022/07/03 09:07:02;;;;;;;;;5.75;4.00;;;;;21.25;75.11;101705.72;5066969;27;45426;-84
2022/07/03 09:09:28;;;;;;;;;4.25;4.25;;;;;21.34;75.36;101713.75;5080479;27;46617;-90
2022/07/03 09:11:53;;;;;;;;;3.00;3.00;;;;;21.45;74.83;101713.94;5079932;28;45837;-81
2022/07/03 09:14:21;;;;;;;;;4.25;3.00;;;;;21.50;74.80;101717.50;5079837;28;45288;-89
2022/07/03 09:16:47;;;;;;;;;6.00;5.50;;;;;21.52;74.50;101712.28;5069914;27;45291;-86
2022/07/03 09:19:12;;;;;;;;;4.50;3.00;;;;;21.56;74.45;101710.56;5080742;27;47812;-82
2022/07/03 09:21:39;;;;;;;;;5.00;3.00;;;;;21.60;73.35;101715.94;5066025;28;45406;-89
2022/07/03 09:24:07;;;;;;;;;2.25;2.25;;;;;21.65;72.85;101698.41;5085093;28;45335;-90
2022/07/03 09:26:33;;;;;;;;;4.00;4.00;;;;;21.86;72.22;101706.59;5066471;28;45390;-88
2022/07/03 09:29:00;;;;;;;;;6.00;5.00;;;;;22.00;71.69;101706.75;5067841;28;47862;-88
2022/07/03 09:31:28;;;;;;;;;5.00;4.75;;;;;22.09;71.18;101714.75;5085602;28;45258;-84
2022/07/03 09:33:54;;;;;;;;;8.00;5.00;;;;;22.09;70.73;101707.75;5083969;27;45482;-91
2022/07/03 09:36:47;;;;;;;;;5.25;5.25;;;;;22.04;70.86;101709.44;5088510;27;45492;-85
2022/07/03 09:39:34;;;;;;;;;5.00;4.00;;;;;22.08;70.96;101716.53;5064165;27;45447;-85
2022/07/03 09:42:19;;;;;;;;;8.00;5.75;;;;;22.13;70.04;101713.06;5061565;28;45280;-85
2022/07/03 09:44:46;;;;;;;;;4.25;4.00;;;;;22.12;69.19;101706.88;5049105;27;45329;-84
2022/07/03 09:47:19;;;;;;;;;6.00;5.25;;;;;22.19;69.02;101708.72;5057959;28;45410;-83
2022/07/03 09:49:50;;;;;;;;;4.75;4.75;;;;;22.30;67.73;101702.69;5077866;28;45638;-83
2022/07/03 09:52:37;;;;;;;;;15.75;14.75;;;;;22.33;67.97;101708.88;5076820;27;45466;-83
2022/07/03 09:55:08;;;;;;;;;7.00;4.25;;;;;22.27;68.04;101708.81;5077651;27;45263;-83
2022/07/03 09:57:35;;;;;;;;;8.75;8.75;;;;;22.27;68.61;101711.44;5078177;27;45453;-83
2022/07/03 10:00:30;;;;;;;;;5.00;5.00;;;;;22.34;67.70;101715.03;5077153;28;45327;-84
2022/07/03 10:03:04;;;;;;;;;7.00;5.00;;;;;22.34;67.69;101718.56;5077330;28;45581;-84
2022/07/03 10:05:31;;;;;;;;;7.75;5.00;;;;;22.38;67.59;101709.81;5077360;27;45385;-83
2022/07/03 10:08:23;;;;;;;;;7.00;6.25;;;;;22.49;68.05;101715.22;5062031;28;45546;-84
2022/07/03 10:10:49;;;;;;;;;6.00;6.00;;;;;22.55;67.32;101698.56;5058335;28;46987;-83
2022/07/03 10:13:15;;;;;;;;;5.00;5.00;;;;;22.65;66.47;101715.38;5077443;28;45730;-83
2022/07/03 10:15:43;;;;;;;;;5.00;5.00;;;;;22.65;65.89;101716.25;5077963;28;45225;-83
2022/07/03 10:18:13;;;;;;;;;4.75;4.00;;;;;22.68;65.33;101726.81;5077613;27;45279;-83
2022/07/03 10:20:49;;;;;;;;;5.50;4.00;;;;;22.73;64.51;101716.34;5058660;27;47309;-83
2022/07/03 10:23:17;;;;;;;;;4.75;4.75;;;;;22.77;64.45;101711.97;5077037;27;45736;-83
2022/07/03 10:25:44;;;;;;;;;7.50;5.50;;;;;22.81;63.84;101713.75;5059196;28;45268;-84
2022/07/03 10:28:15;;;;;;;;;5.25;5.00;;;;;22.78;64.86;101706.69;5058976;28;45406;-84
2022/07/03 10:30:44;;;;;;;;;7.75;4.75;;;;;22.77;65.17;101709.31;5058667;28;46320;-83
2022/07/03 10:33:09;;;;;;;;;8.00;6.75;;;;;22.75;65.58;101705.78;5077414;28;45979;-82
2022/07/03 10:35:38;;;;;;;;;5.25;5.25;;;;;22.69;65.08;101707.47;5082501;27;45374;-83
2022/07/03 10:38:42;;;;;;;;;3.50;3.50;;;;;22.78;63.98;101706.69;5061332;28;45424;-83
2022/07/03 10:47:04;;;;;;;;;4.50;3.25;;;;;22.97;62.52;101712.09;5076849;27;45263;-82
2022/07/03 10:49:30;;;;;;;;;5.00;4.00;;;;;23.00;62.71;101707.72;5077580;28;45587;-83
2022/07/03 10:52:03;;;;;;;;;3.00;3.00;;;;;23.03;61.38;101715.69;5058888;28;47836;-82
2022/07/03 10:54:36;;;;;;;;;4.75;3.00;;;;;22.97;61.19;101714.75;5077340;28;45953;-83
2022/07/03 10:57:01;;;;;;;;;4.25;3.25;;;;;22.96;61.89;101724.44;5076782;27;45261;-83
2022/07/03 10:59:36;;;;;;;;;4.00;3.00;;;;;23.02;61.06;101719.19;5076970;28;45545;-82
2022/07/03 11:02:30;;;;;;;;;1.75;1.75;;;;;23.14;60.66;101722.81;5064824;28;47692;-84
2022/07/03 11:04:59;;;;;;;;;3.75;2.00;;;;;23.22;60.28;101721.13;5060099;28;45655;-84
2022/07/03 11:07:38;;;;;;;;;4.00;3.75;;;;;23.28;59.91;101725.56;5081557;27;45394;-83
2022/07/03 11:10:24;;;;;;;;;3.25;2.00;;;;;23.33;59.62;101721.22;5082366;28;45414;-83
2022/07/03 11:13:06;;;;;;;;;2.00;2.00;;;;;23.32;59.69;101715.03;5062674;27;45553;-83
2022/07/03 11:15:34;;;;;;;;;2.00;2.00;;;;;23.34;59.75;101717.69;5079069;27;45757;-83
2022/07/03 11:18:05;;;;;;;;;3.00;3.00;;;;;23.26;59.07;101728.22;5082529;28;45279;-82
2022/07/03 11:20:58;;;;;;;;;1.75;1.75;;;;;23.22;59.50;101728.19;5081611;27;45343;-82
2022/07/03 11:23:26;;;;;;;;;6.00;6.00;;;;;23.27;59.20;101719.41;5080200;28;45350;-82
2022/07/03 11:26:19;;;;;;;;;4.00;4.00;;;;;23.30;59.31;101730.00;5078400;27;45761;-84
2022/07/03 11:28:44;;;;;;;;;2.25;2.25;;;;;23.38;58.37;101726.53;5080643;28;45351;-84
2022/07/03 11:33:56;;;;;;;;;1.50;1.50;;;;;23.50;57.41;101716.91;5076997;28;45406;-83
2022/07/03 11:36:21;;;;;;;;;2.00;2.00;;;;;23.53;57.56;101708.13;5076658;27;45486;-83
2022/07/03 11:38:57;;;;;;;;;1.00;1.00;;;;;23.62;57.54;101709.91;5077091;28;45375;-83
2022/07/03 11:41:44;;;;;;;;;3.00;2.00;;;;;23.73;57.32;101712.63;5076530;27;45304;-86
2022/07/03 11:44:14;;;;;;;;;2.00;2.00;;;;;23.80;56.64;101715.31;5076662;27;45503;-84
2022/07/03 11:46:40;;;;;;;;;2.25;2.25;;;;;23.85;56.87;101712.69;5076710;28;45341;-83
2022/07/03 11:49:13;;;;;;;;;4.00;4.00;;;;;23.90;56.70;101705.63;5076607;27;45355;-84